Time;durP1;ratioP1;P1;durP2;ratioP2;P2;SDS_P1;SDS_P2;PMS_P1;PMS_P2;Temp;Humidity;BMP_temperature;BMP_pressure;BME280_temperature;BME280_humidity;BME280_pressure;Samples;Min_cycle;Max_cycle;Signal;HPM_P1;HPM_P2
2022/05/16 00:01:07;;;;;;;67.03;27.05;;;;;;;25.93;39.71;101283.91;5067605;28;20037;-50
2022/05/16 00:03:32;;;;;;;21.67;7.40;;;;;;;26.11;39.76;101265.09;5070759;28;20040;-52
2022/05/16 00:05:58;;;;;;;49.78;17.70;;;;;;;26.44;39.49;101268.84;5067775;28;20270;-49
2022/05/16 00:08:23;;;;;;;22.77;6.93;;;;;;;27.03;38.04;101265.91;5062236;28;20029;-53
2022/05/16 00:10:49;;;;;;;26.10;10.48;;;;;;;27.69;37.48;101253.38;5073633;28;20040;-52
2022/05/16 00:13:15;;;;;;;16.60;5.53;;;;;;;27.15;37.21;101256.41;5069830;28;20047;-54
2022/05/16 00:15:41;;;;;;;32.70;14.10;;;;;;;26.28;39.00;101242.72;5062129;28;20298;-52
2022/05/16 00:18:06;;;;;;;13.10;4.50;;;;;;;26.06;39.70;101241.28;5062842;28;20049;-53
2022/05/16 00:20:33;;;;;;;;;;;;;;;27.98;36.96;101253.06;5069631;28;20067;-53
2022/05/16 00:22:59;;;;;;;18.90;6.30;;;;;;;28.19;36.72;101248.03;5057483;28;19913;-51
2022/05/16 00:25:26;;;;;;;16.40;5.60;;;;;;;28.50;36.24;101245.75;5068511;28;20271;-53
2022/05/16 00:27:52;;;;;;;14.32;3.85;;;;;;;28.27;37.19;101242.94;5063464;28;20273;-53
2022/05/16 00:30:19;;;;;;;16.03;4.30;;;;;;;26.62;40.45;101244.50;5061098;28;20029;-53
2022/05/16 00:32:48;;;;;;;10.50;3.33;;;;;;;26.16;40.83;101241.22;5053058;28;20298;-49
2022/05/16 00:35:16;;;;;;;12.13;4.27;;;;;;;27.26;39.29;101240.56;5058065;28;20277;-52
2022/05/16 00:37:42;;;;;;;15.43;4.00;;;;;;;26.67;39.96;101232.66;5066023;28;20267;-51
2022/05/16 00:40:09;;;;;;;12.95;4.13;;;;;;;26.01;40.94;101222.19;5065582;28;20391;-52
2022/05/16 00:42:36;;;;;;;14.20;3.90;;;;;;;25.81;41.62;101223.22;5058690;28;20046;-54
2022/05/16 00:45:02;;;;;;;10.07;3.47;;;;;;;25.89;41.77;101223.41;5070354;28;20387;-51
2022/05/16 00:47:28;;;;;;;17.40;3.73;;;;;;;25.92;42.53;101211.88;5059933;28;20113;-52
2022/05/16 00:49:55;;;;;;;19.33;4.40;;;;;;;25.77;42.94;101212.03;5065739;28;20290;-50
2022/05/16 00:52:27;;;;;;;14.97;4.30;;;;;;;25.81;42.59;101217.75;5057658;28;20041;-50
2022/05/16 00:54:55;;;;;;;15.17;4.23;;;;;;;26.09;42.07;101221.56;5058411;28;20266;-49
2022/05/16 00:57:37;;;;;;;12.97;3.77;;;;;;;25.96;42.16;101220.34;5072104;28;20281;-50
2022/05/16 01:00:15;;;;;;;12.67;4.17;;;;;;;26.06;41.87;101216.63;5067863;28;20274;-51
2022/05/16 01:05:29;;;;;;;9.13;4.00;;;;;;;25.98;41.91;101218.13;5048839;28;20270;-52
2022/05/16 01:07:59;;;;;;;13.45;3.40;;;;;;;26.02;41.88;101215.59;5067652;28;20297;-51
2022/05/16 01:10:25;;;;;;;9.90;3.60;;;;;;;25.85;42.30;101208.66;5070558;28;20104;-52
2022/05/16 01:12:52;;;;;;;14.77;3.00;;;;;;;25.68;42.32;101205.56;5059017;28;20286;-54
2022/05/16 01:15:38;;;;;;;8.73;3.40;;;;;;;25.83;42.46;101210.84;5046526;28;20036;-50
2022/05/16 01:18:08;;;;;;;15.13;3.97;;;;;;;25.64;42.96;101210.78;5065870;28;20654;-51
2022/05/16 01:21:06;;;;;;;9.57;3.50;;;;;;;25.25;43.85;101201.53;5071824;28;20289;-51
2022/05/16 01:23:35;;;;;;;;;;;;;;;25.18;44.18;101201.03;5050288;28;20328;-52
2022/05/16 01:26:06;;;;;;;13.77;4.37;;;;;;;25.30;44.06;101193.25;5066382;28;19924;-52
2022/05/16 01:28:31;;;;;;;14.43;4.50;;;;;;;25.04;44.88;101189.94;5071281;28;20277;-50
2022/05/16 01:30:57;;;;;;;12.88;3.83;;;;;;;25.79;44.04;101192.56;5059603;28;20277;-51
2022/05/16 01:33:25;;;;;;;8.23;3.33;;;;;;;25.58;45.41;101196.31;5071365;28;20124;-50
2022/05/16 01:35:51;;;;;;;15.83;3.27;;;;;;;25.44;46.25;101187.13;5065925;28;20071;-53
2022/05/16 01:38:18;;;;;;;15.75;4.72;;;;;;;25.09;46.94;101195.34;5064364;28;20267;-52
2022/05/16 01:40:47;;;;;;;19.03;4.10;;;;;;;26.41;43.50;101189.94;5072950;28;20075;-48
2022/05/16 01:43:17;;;;;;;13.17;3.27;;;;;;;27.84;40.30;101192.63;5044412;28;20277;-50
2022/05/16 01:45:44;;;;;;;15.03;3.87;;;;;;;26.24;42.49;101186.88;5068803;28;20277;-52
2022/05/16 01:48:11;;;;;;;17.13;4.53;;;;;;;25.17;44.76;101181.06;5068215;28;20270;-50
2022/05/16 01:50:38;;;;;;;10.33;4.13;;;;;;;25.08;45.47;101176.47;5061067;28;20285;-50
2022/05/16 01:53:03;;;;;;;13.85;3.70;;;;;;;25.00;45.81;101181.47;5072082;28;20282;-50
2022/05/16 01:55:29;;;;;;;12.52;4.10;;;;;;;24.96;45.99;101180.41;5061579;28;20131;-48
2022/05/16 01:57:54;;;;;;;14.02;4.25;;;;;;;25.09;46.06;101176.22;5066886;28;20100;-52
2022/05/16 02:00:20;;;;;;;15.40;3.53;;;;;;;25.23;45.45;101170.88;5068800;28;20053;-49
2022/05/16 02:02:46;;;;;;;12.93;4.03;;;;;;;24.83;45.60;101176.41;5059186;28;20030;-50
2022/05/16 02:05:16;;;;;;;13.45;3.92;;;;;;;24.90;45.62;101173.31;5043279;28;20280;-51
2022/05/16 02:07:42;;;;;;;16.07;4.10;;;;;;;24.58;45.86;101166.41;5067765;28;20072;-48
2022/05/16 02:10:10;;;;;;;11.68;4.60;;;;;;;25.14;45.54;101170.69;5067636;28;20282;-55
2022/05/16 02:12:36;;;;;;;12.83;4.37;;;;;;;24.98;45.92;101159.06;5061061;28;20048;-50
2022/05/16 02:15:04;;;;;;;10.07;3.85;;;;;;;24.60;46.27;101153.25;5057928;28;20290;-51
2022/05/16 02:17:29;;;;;;;11.60;4.33;;;;;;;24.73;46.47;101149.91;5070095;28;20056;-49
2022/05/16 02:19:55;;;;;;;19.00;4.45;;;;;;;24.77;46.44;101147.44;5065382;28;20337;-54
2022/05/16 02:25:05;;;;;;;19.97;4.23;;;;;;;24.58;47.44;101145.34;5072468;28;20059;-51
2022/05/16 02:27:31;;;;;;;16.05;3.90;;;;;;;24.69;46.96;101148.84;5061767;28;20297;-50
2022/05/16 02:29:57;;;;;;;14.27;4.07;;;;;;;24.35;47.80;101144.13;5066159;28;20033;-52
2022/05/16 02:32:23;;;;;;;16.30;5.22;;;;;;;24.69;47.27;101143.38;5055726;28;20083;-48
2022/05/16 02:34:50;;;;;;;8.57;4.13;;;;;;;24.66;47.29;101141.19;5072111;28;20038;-50
2022/05/16 02:37:16;;;;;;;17.88;4.18;;;;;;;24.51;47.58;101139.38;5059599;28;20039;-49
2022/05/16 02:39:44;;;;;;;13.38;4.25;;;;;;;24.80;47.17;101137.84;5068309;28;20033;-49
2022/05/16 02:42:14;;;;;;;11.77;3.70;;;;;;;24.81;46.79;101131.28;5066782;28;20055;-53
2022/05/16 02:44:41;;;;;;;12.87;3.93;;;;;;;24.89;46.88;101136.13;5060077;28;20345;-48
2022/05/16 02:47:12;;;;;;;15.57;3.97;;;;;;;25.59;45.20;101134.97;5072046;28;20274;-53
2022/05/16 02:49:38;;;;;;;13.27;4.53;;;;;;;26.37;43.13;101138.72;5062195;28;20274;-48
2022/05/16 02:52:04;;;;;;;15.27;3.88;;;;;;;25.71;44.25;101140.03;5064869;28;20274;-49
2022/05/16 02:54:30;;;;;;;9.75;3.33;;;;;;;25.76;44.22;101140.00;5055256;28;20029;-51
2022/05/16 02:56:55;;;;;;;10.90;3.83;;;;;;;24.90;45.91;101132.28;5071766;28;20063;-50
2022/05/16 02:59:23;;;;;;;19.55;4.63;;;;;;;24.95;47.80;101128.72;5059905;28;20048;-52
2022/05/16 03:01:48;;;;;;;16.00;3.57;;;;;;;23.42;50.69;101123.38;5066629;28;20080;-49
2022/05/16 03:04:14;;;;;;;14.77;4.82;;;;;;;23.30;52.58;101129.13;5067026;28;20274;-51
2022/05/16 03:06:41;;;;;;;14.98;4.43;;;;;;;23.23;53.03;101114.91;5059885;28;20087;-52
2022/05/16 03:09:07;;;;;;;10.87;3.93;;;;;;;23.13;54.92;101112.19;5071653;28;20061;-50
2022/05/16 03:11:33;;;;;;;11.30;3.78;;;;;;;23.12;54.66;101110.56;5054553;28;20278;-53
2022/05/16 03:13:58;;;;;;;15.20;4.70;;;;;;;23.13;54.09;101110.28;5064335;28;20021;-49
2022/05/16 03:16:24;;;;;;;15.43;4.00;;;;;;;22.99;54.85;101110.00;5061890;28;20041;-51
2022/05/16 03:18:49;;;;;;;11.70;4.22;;;;;;;22.95;56.44;101106.19;5071429;28;20086;-48
2022/05/16 03:21:15;;;;;;;12.25;3.90;;;;;;;22.99;56.89;101107.28;5058574;28;20059;-49
2022/05/16 03:23:41;;;;;;;9.30;4.13;;;;;;;22.97;56.43;101098.56;5067462;28;20041;-49
2022/05/16 03:26:07;;;;;;;;;;;;;;;22.92;57.00;101098.56;5066263;28;20273;-48
2022/05/16 03:28:33;;;;;;;17.93;4.23;;;;;;;22.92;57.06;101104.03;5060420;28;19913;-48
2022/05/16 03:31:01;;;;;;;9.95;4.40;;;;;;;22.84;58.61;101097.19;5071179;28;20096;-49
2022/05/16 03:33:26;;;;;;;13.03;4.63;;;;;;;22.80;58.51;101100.72;5054540;28;20045;-48
2022/05/16 03:35:55;;;;;;;16.77;4.50;;;;;;;22.78;58.97;101101.81;5063135;28;20268;-48
2022/05/16 03:41:08;;;;;;;9.25;4.75;;;;;;;22.74;60.07;101102.66;5071081;28;20281;-52
2022/05/16 03:43:37;;;;;;;12.40;4.85;;;;;;;22.90;59.09;101089.84;5060489;28;20037;-49
2022/05/16 03:46:03;;;;;;;14.93;6.53;;;;;;;22.99;57.51;101098.31;5064151;28;20033;-49
2022/05/16 03:48:29;;;;;;;31.70;13.57;;;;;;;22.87;58.40;101109.47;5055424;28;20297;-52
2022/05/16 03:50:54;;;;;;;31.80;14.07;;;;;;;22.83;57.94;101111.91;5070711;28;20321;-51
2022/05/16 03:53:20;;;;;;;35.30;13.68;;;;;;;22.88;57.83;101100.22;5058839;28;20040;-50
2022/05/16 03:55:46;;;;;;;37.78;18.00;;;;;;;22.94;57.09;101099.09;5067007;28;20036;-52
2022/05/16 03:58:12;;;;;;;52.45;19.10;;;;;;;23.05;57.01;101098.00;5065746;28;20063;-50
2022/05/16 04:00:37;;;;;;;24.15;8.77;;;;;;;23.05;56.92;101099.94;5059806;28;20042;-49
2022/05/16 04:03:04;;;;;;;22.35;10.77;;;;;;;23.50;54.62;101097.41;5070908;28;20040;-51
2022/05/16 04:05:30;;;;;;;34.33;18.08;;;;;;;24.07;52.15;101110.91;5060130;28;20029;-48
2022/05/16 04:07:56;;;;;;;25.20;11.63;;;;;;;23.89;52.22;101107.69;5065563;28;20044;-48
2022/05/16 04:10:23;;;;;;;37.60;17.43;;;;;;;23.96;51.86;101112.03;5054648;28;20045;-51
2022/05/16 04:12:49;;;;;;;20.92;8.13;;;;;;;23.87;51.66;101118.06;5070437;28;20273;-49
2022/05/16 04:15:15;;;;;;;40.20;17.23;;;;;;;23.91;51.96;101113.69;5054444;28;20097;-52
2022/05/16 04:17:41;;;;;;;28.75;11.77;;;;;;;23.93;51.62;101105.22;5061165;28;20040;-54
2022/05/16 04:20:07;;;;;;;75.85;33.03;;;;;;;23.92;51.78;101103.59;5064073;28;20048;-52
2022/05/16 04:22:33;;;;;;;23.52;9.02;;;;;;;24.13;51.03;101104.31;5068227;28;20032;-49
2022/05/16 04:24:58;;;;;;;20.25;9.43;;;;;;;23.98;51.81;101109.81;5061516;28;20044;-51
2022/05/16 04:27:24;;;;;;;17.90;6.10;;;;;;;23.91;51.82;101113.69;5073925;28;20037;-49
2022/05/16 04:29:49;;;;;;;28.90;10.63;;;;;;;24.24;50.92;101107.03;5066437;28;20033;-49
2022/05/16 04:32:15;;;;;;;15.88;5.50;;;;;;;24.77;49.10;101109.97;5066772;28;20068;-50
2022/05/16 04:34:41;;;;;;;19.40;7.43;;;;;;;25.42;47.72;101107.22;5073154;28;20036;-50
2022/05/16 04:37:06;;;;;;;19.88;7.03;;;;;;;25.97;45.95;101108.81;5061573;28;20052;-51
2022/05/16 04:39:32;;;;;;;22.75;6.63;;;;;;;25.11;47.56;101112.97;5072470;28;20040;-52
2022/05/16 04:44:42;;;;;;;35.20;15.20;;;;;;;25.33;47.32;101121.50;5062781;28;20033;-54
2022/05/16 04:47:09;;;;;;;35.33;11.90;;;;;;;24.40;49.85;101113.22;5074653;28;20292;-50
2022/05/16 04:49:35;;;;;;;25.73;8.50;;;;;;;24.85;49.04;101118.66;5063677;28;20052;-51
2022/05/16 04:52:01;;;;;;;23.23;9.13;;;;;;;25.92;46.17;101121.47;5068772;28;20301;-54
2022/05/16 04:54:27;;;;;;;23.48;10.45;;;;;;;26.45;45.02;101121.63;5070940;28;20045;-48
2022/05/16 04:56:53;;;;;;;15.15;6.05;;;;;;;25.27;47.28;101117.22;5061181;28;20056;-53
2022/05/16 04:59:20;;;;;;;16.73;4.80;;;;;;;26.09;46.27;101124.81;5074358;28;20044;-51
2022/05/16 05:01:46;;;;;;;21.27;7.83;;;;;;;24.89;48.42;101117.81;5064967;28;20063;-52
2022/05/16 05:04:12;;;;;;;17.27;6.37;;;;;;;25.27;47.89;101114.47;5065188;28;20263;-50
2022/05/16 05:06:39;;;;;;;15.52;5.00;;;;;;;25.26;47.78;101123.78;5072390;28;20273;-49
2022/05/16 05:09:06;;;;;;;21.07;6.23;;;;;;;24.87;48.51;101124.66;5061016;28;20033;-49
2022/05/16 05:14:32;;;;;;;12.27;5.47;;;;;;;24.86;49.04;101123.84;5069158;28;20033;-48
2022/05/16 05:17:07;;;;;;;17.07;6.83;;;;;;;24.76;49.53;101124.75;5060543;28;20286;-50
2022/05/16 05:19:35;;;;;;;18.80;6.40;;;;;;;25.17;48.89;101128.25;5077392;28;20262;-50
2022/05/16 05:22:00;;;;;;;18.57;6.20;;;;;;;24.60;50.52;101128.66;5067844;28;20287;-50
2022/05/16 05:24:26;;;;;;;16.45;6.57;;;;;;;24.55;50.48;101117.75;5069896;28;20768;-48
2022/05/16 05:26:52;;;;;;;18.70;7.07;;;;;;;24.52;51.25;101119.13;5060727;28;20033;-50
2022/05/16 05:29:19;;;;;;;15.57;6.63;;;;;;;24.60;51.44;101120.44;5044032;28;20029;-52
2022/05/16 05:31:45;;;;;;;9.13;5.53;;;;;;;24.64;51.81;101118.78;5069920;28;20017;-52
2022/05/16 05:34:12;;;;;;;15.37;6.30;;;;;;;24.94;50.99;101108.75;5067739;28;20045;-51
2022/05/16 05:36:39;;;;;;;21.95;5.72;;;;;;;25.51;49.55;101107.44;5061932;28;20342;-51
2022/05/16 05:39:05;;;;;;;12.83;5.43;;;;;;;25.53;48.82;101108.75;5073098;28;20045;-52
2022/05/16 05:41:31;;;;;;;21.42;4.93;;;;;;;25.79;48.03;101124.91;5061836;28;20059;-49
2022/05/16 05:43:57;;;;;;;;;;;;;;;25.99;47.77;101132.06;5068007;28;20053;-51
2022/05/16 05:46:23;;;;;;;17.07;5.70;;;;;;;25.74;48.61;101128.53;5062639;28;19912;-49
2022/05/16 05:48:49;;;;;;;18.88;5.50;;;;;;;26.11;48.39;101133.56;5075885;28;20059;-46
2022/05/16 05:51:15;;;;;;;11.32;5.80;;;;;;;26.39;48.04;101134.59;5067374;28;20057;-53
2022/05/16 05:53:41;;;;;;;;;;;;;;;26.48;47.96;101135.53;5070548;28;20093;-52
2022/05/16 05:56:08;;;;;;;11.93;4.80;;;;;;;26.11;48.15;101128.91;5061851;28;19917;-51
2022/05/16 05:58:34;;;;;;;15.37;5.40;;;;;;;25.56;49.58;101127.34;5076495;28;20101;-48
2022/05/16 06:01:01;;;;;;;14.48;5.35;;;;;;;25.23;50.39;101118.88;5066103;28;20033;-50
2022/05/16 06:03:26;;;;;;;11.77;5.37;;;;;;;25.69;49.34;101127.75;5076074;28;20097;-51
2022/05/16 06:05:53;;;;;;;;;;;;;;;25.95;48.48;101121.97;5072029;28;20041;-48
2022/05/16 06:08:19;;;;;;;14.07;5.87;;;;;;;26.08;48.58;101132.22;5068912;28;19912;-54
2022/05/16 06:10:45;;;;;;;14.52;5.68;;;;;;;25.76;49.02;101140.00;5060620;28;20067;-51
2022/05/16 06:13:10;;;;;;;16.30;5.10;;;;;;;25.88;48.84;101144.25;5071103;28;20041;-50
2022/05/16 06:15:36;;;;;;;14.90;5.70;;;;;;;25.74;49.48;101152.34;5068413;28;20044;-52
2022/05/16 06:18:02;;;;;;;13.80;5.55;;;;;;;25.49;49.20;101146.03;5075612;28;20033;-51
2022/05/16 06:20:27;;;;;;;;;;;;;;;25.67;49.62;101147.22;5066504;28;20047;-50
2022/05/16 06:22:54;;;;;;;18.40;6.33;;;;;;;24.98;51.68;101147.28;5075636;28;19913;-50
2022/05/16 06:25:39;;;;;;;14.80;6.00;;;;;;;25.33;50.95;101139.88;5042653;28;20027;-49
2022/05/16 06:28:18;;;;;;;14.37;6.63;;;;;;;25.46;50.99;101141.91;5067902;28;20058;-50
2022/05/16 06:30:46;;;;;;;17.10;7.70;;;;;;;25.71;50.33;101147.47;5075094;28;20059;-47
2022/05/16 06:33:14;;;;;;;15.77;6.50;;;;;;;25.47;50.45;101143.59;5072494;28;20091;-51
2022/05/16 06:35:40;;;;;;;15.87;6.93;;;;;;;25.80;50.01;101145.69;5060285;28;20105;-53
2022/05/16 06:38:18;;;;;;;16.58;6.18;;;;;;;25.70;50.90;101140.34;5070519;28;20037;-52
2022/05/16 06:40:46;;;;;;;14.53;6.93;;;;;;;25.39;51.57;101146.13;5063646;28;20037;-52
2022/05/16 06:43:12;;;;;;;11.50;6.67;;;;;;;25.64;50.82;101153.28;5074758;28;20032;-51
2022/05/16 06:45:38;;;;;;;22.93;6.83;;;;;;;26.48;48.95;101165.69;5066509;28;20032;-49
2022/05/16 06:48:04;;;;;;;17.38;6.85;;;;;;;27.02;45.97;101168.22;5071421;28;20043;-51
2022/05/16 06:50:31;;;;;;;11.55;7.38;;;;;;;27.68;45.64;101164.63;5070686;28;20045;-48
2022/05/16 06:52:57;;;;;;;14.67;7.47;;;;;;;27.68;46.28;101174.78;5072723;28;20036;-49
2022/05/16 06:55:22;;;;;;;;;;;;;;;26.99;47.40;101178.97;5063347;28;20045;-49
2022/05/16 06:57:48;;;;;;;14.20;7.60;;;;;;;26.95;48.18;101177.94;5068337;28;19913;-51
2022/05/16 07:00:14;;;;;;;16.20;8.40;;;;;;;27.34;47.56;101188.53;5065488;28;20096;-50
2022/05/16 07:02:40;;;;;;;16.37;7.47;;;;;;;27.39;46.84;101195.88;5069854;28;20096;-48
2022/05/16 07:05:06;;;;;;;;;;;;;;;27.02;48.12;101190.19;5057142;28;20034;-49
2022/05/16 07:07:33;;;;;;;13.57;6.93;;;;;;;27.83;46.01;101193.72;5067885;28;19928;-54
2022/05/16 07:10:03;;;;;;;19.07;6.67;;;;;;;28.02;45.86;101198.31;5051940;28;20053;-51
2022/05/16 07:12:29;;;;;;;14.03;7.30;;;;;;;27.27;47.19;101190.03;5067806;28;20028;-51
2022/05/16 07:14:54;;;;;;;16.00;8.65;;;;;;;26.99;47.05;101190.78;5058178;28;20045;-52
2022/05/16 07:17:20;;;;;;;16.83;7.68;;;;;;;27.61;46.03;101195.25;5062822;28;20029;-51
2022/05/16 07:19:46;;;;;;;28.63;9.77;;;;;;;27.13;47.19;101190.00;5074078;28;20033;-52
2022/05/16 07:22:14;;;;;;;14.10;7.60;;;;;;;27.22;46.86;101190.97;5068159;28;20057;-48
2022/05/16 07:24:42;;;;;;;25.13;7.67;;;;;;;28.26;44.82;101187.16;5060816;28;20037;-50
2022/05/16 07:29:52;;;;;;;19.37;9.70;;;;;;;27.54;45.26;101188.50;5072596;28;20074;-51
2022/05/16 07:32:19;;;;;;;;;;;;;;;26.99;46.91;101196.28;5073745;28;20033;-52
2022/05/16 07:34:45;;;;;;;14.13;10.35;;;;;;;27.56;46.24;101205.50;5075410;28;19913;-51
2022/05/16 07:37:11;;;;;;;20.65;12.00;;;;;;;27.60;45.86;101210.09;5050743;28;20037;-51
2022/05/16 07:39:38;;;;;;;20.52;11.05;;;;;;;27.22;46.94;101212.09;5054546;28;20136;-49
2022/05/16 07:42:07;;;;;;;16.83;8.57;;;;;;;27.40;47.35;101218.66;5063053;28;20033;-51
2022/05/16 07:44:34;;;;;;;19.23;8.17;;;;;;;27.63;47.00;101220.47;5060449;28;20038;-51
2022/05/16 07:46:59;;;;;;;21.53;8.60;;;;;;;27.43;47.27;101216.13;5069883;28;20071;-52
2022/05/16 07:49:25;;;;;;;23.13;10.95;;;;;;;28.64;45.69;101224.56;5057571;28;20045;-48
2022/05/16 07:51:51;;;;;;;;;;;;;;;28.95;44.58;101223.03;5065514;28;20064;-48
2022/05/16 07:54:16;;;;;;;25.10;9.90;;;;;;;28.32;45.26;101215.31;5063009;28;19940;-52
2022/05/16 07:56:42;;;;;;;13.30;7.68;;;;;;;28.91;44.77;101217.38;5068186;28;20041;-55
2022/05/16 07:59:09;;;;;;;17.30;8.43;;;;;;;29.04;43.89;101221.97;5056605;28;20038;-50
2022/05/16 08:01:36;;;;;;;17.77;8.13;;;;;;;29.44;43.62;101224.09;5068755;28;20121;-53
2022/05/16 08:04:06;;;;;;;16.03;8.20;;;;;;;29.18;43.73;101235.72;5062760;28;20044;-52
2022/05/16 08:06:33;;;;;;;15.87;7.20;;;;;;;29.22;43.71;101229.56;5069395;28;20071;-48
2022/05/16 08:11:43;;;;;;;15.20;7.73;;;;;;;29.52;43.15;101247.28;5067184;28;20021;-52
2022/05/16 08:14:09;;;;;;;13.32;8.05;;;;;;;29.69;42.55;101254.00;5062788;28;20038;-49
2022/05/16 08:16:35;;;;;;;17.42;8.45;;;;;;;29.76;42.43;101248.88;5068716;28;20096;-51
2022/05/16 08:19:00;;;;;;;23.47;9.80;;;;;;;30.17;41.85;101256.03;5056812;28;20136;-49
2022/05/16 08:21:26;;;;;;;16.10;7.68;;;;;;;30.54;41.93;101257.75;5069383;28;20088;-48
2022/05/16 08:23:52;;;;;;;20.67;9.05;;;;;;;30.69;41.48;101264.78;5060747;28;20040;-52
2022/05/16 08:26:17;;;;;;;20.98;9.38;;;;;;;31.09;40.62;101266.56;5062722;28;20037;-51
2022/05/16 08:28:43;;;;;;;20.37;8.63;;;;;;;31.20;40.26;101256.88;5067734;28;20052;-51
2022/05/16 08:31:09;;;;;;;15.03;6.33;;;;;;;31.05;39.46;101269.19;5068661;28;20101;-53
2022/05/16 08:33:36;;;;;;;;;;;;;;;30.82;41.35;101274.03;5068664;28;20049;-52
2022/05/16 08:41:43;;;;;;;22.00;9.13;;;;;;;30.88;41.06;101272.75;5064081;28;20033;-51
2022/05/16 08:44:19;;;;;;;21.97;8.13;;;;;;;29.87;43.15;101264.00;5070970;28;20096;-55
2022/05/16 08:46:48;;;;;;;19.00;8.00;;;;;;;30.15;43.88;101263.03;5065255;28;20044;-49
2022/05/16 08:49:25;;;;;;;33.13;9.70;;;;;;;30.71;43.35;101266.09;5064536;28;20067;-48
2022/05/16 08:52:00;;;;;;;23.33;8.83;;;;;;;31.05;42.83;101266.44;5063404;28;20031;-49
2022/05/16 08:54:45;;;;;;;16.20;7.50;;;;;;;31.59;41.52;101273.53;5064911;28;20048;-52
2022/05/16 08:57:14;;;;;;;20.20;8.53;;;;;;;31.03;41.83;101271.47;5065577;28;20076;-51
2022/05/16 08:59:43;;;;;;;18.03;7.43;;;;;;;31.04;41.72;101279.41;5065819;28;20064;-53
2022/05/16 09:02:19;;;;;;;18.40;7.40;;;;;;;31.15;41.84;101273.56;5062593;28;20037;-52
2022/05/16 09:04:55;;;;;;;15.23;7.93;;;;;;;30.86;42.61;101270.31;5067203;28;20029;-51
2022/05/16 09:07:29;;;;;;;15.13;6.83;;;;;;;31.47;41.04;101277.75;5056204;28;20033;-50
2022/05/16 09:10:07;;;;;;;20.87;7.43;;;;;;;30.79;42.39;101269.19;5072347;28;20062;-51
2022/05/16 09:12:42;;;;;;;74.23;39.17;;;;;;;30.73;42.57;101263.81;5063973;28;20097;-50
2022/05/16 09:15:30;;;;;;;16.20;6.23;;;;;;;30.66;42.58;101265.44;5056381;28;20108;-55
2022/05/16 09:18:01;;;;;;;32.33;16.93;;;;;;;31.80;40.47;101278.38;5066787;28;20040;-51
2022/05/16 09:20:43;;;;;;;30.70;12.30;;;;;;;31.33;40.75;101266.91;5072779;28;20055;-55
2022/05/16 09:23:22;;;;;;;12.17;6.37;;;;;;;31.46;41.32;101259.56;5069912;28;20037;-54
2022/05/16 09:26:03;;;;;;;14.00;5.03;;;;;;;32.01;40.31;101264.63;5066091;28;20064;-53
2022/05/16 09:28:35;;;;;;;12.77;5.63;;;;;;;31.96;40.04;101268.41;5068640;28;20097;-52
2022/05/16 09:31:20;;;;;;;8.00;4.13;;;;;;;32.42;39.43;101265.91;5060027;28;20105;-53
2022/05/16 09:33:52;;;;;;;24.70;13.20;;;;;;;33.35;38.16;101261.44;5067168;28;20026;-49
2022/05/16 09:36:24;;;;;;;15.30;5.57;;;;;;;33.86;36.61;101266.72;5045700;28;20071;-49
2022/05/16 09:38:51;;;;;;;12.55;4.43;;;;;;;34.12;36.54;101251.72;5071277;28;20048;-52
2022/05/16 09:41:35;;;;;;;9.15;4.53;;;;;;;34.64;35.34;101256.91;5069577;28;20052;-54
2022/05/16 09:44:10;;;;;;;17.95;7.97;;;;;;;35.29;34.08;101261.53;5067364;28;20085;-53
2022/05/16 09:46:35;;;;;;;7.90;3.40;;;;;;;36.00;33.20;101269.31;5069254;28;20033;-50
2022/05/16 09:49:07;;;;;;;5.97;2.70;;;;;;;35.97;33.45;101267.22;5068862;28;20044;-51
2022/05/16 09:52:02;;;;;;;12.65;4.78;;;;;;;37.37;30.81;101265.06;5043912;28;20033;-54
2022/05/16 09:54:35;;;;;;;10.82;3.50;;;;;;;37.83;30.30;101270.69;5054824;28;20046;-51
2022/05/16 09:57:04;;;;;;;17.75;8.27;;;;;;;38.06;29.67;101283.81;5056410;28;20036;-53
2022/05/16 09:59:42;;;;;;;6.22;3.35;;;;;;;37.36;30.67;101286.56;5043288;28;20029;-52
2022/05/16 10:02:25;;;;;;;11.95;3.78;;;;;;;37.51;30.33;101286.88;5067206;28;20045;-48
2022/05/16 10:04:56;;;;;;;13.40;3.92;;;;;;;37.48;30.28;101299.53;5071019;28;20037;-50
2022/05/16 10:07:27;;;;;;;7.07;3.63;;;;;;;38.44;29.71;101301.56;5058744;28;20040;-52
2022/05/16 10:09:54;;;;;;;10.20;3.13;;;;;;;38.35;28.93;101316.94;5069010;28;20032;-51
2022/05/16 10:12:23;;;;;;;16.63;3.95;;;;;;;37.13;30.54;101331.94;5066206;28;20037;-51
2022/05/16 10:14:49;;;;;;;8.32;3.00;;;;;;;36.50;31.17;101319.00;5060894;28;20044;-53
2022/05/16 10:17:27;;;;;;;9.40;3.55;;;;;;;36.50;31.52;101319.78;5057553;28;20045;-52
2022/05/16 10:19:59;;;;;;;9.68;3.30;;;;;;;37.40;30.38;101320.13;5068826;28;20033;-52
2022/05/16 10:22:26;;;;;;;8.82;3.17;;;;;;;36.79;31.30;101319.66;5055215;28;20037;-50
2022/05/16 10:24:55;;;;;;;6.85;3.42;;;;;;;35.95;32.65;101322.44;5070608;28;20047;-55
2022/05/16 10:27:28;;;;;;;9.70;3.40;;;;;;;36.29;32.45;101325.69;5058687;28;20045;-53
2022/05/16 10:29:57;;;;;;;5.28;2.90;;;;;;;37.08;31.42;101328.63;5068604;28;20093;-53
2022/05/16 10:35:33;;;;;;;11.95;3.50;;;;;;;37.53;30.81;101329.94;5053561;28;20136;-53
2022/05/16 10:38:05;;;;;;;10.65;3.72;;;;;;;36.73;32.42;101327.50;5062665;28;20048;-55
2022/05/16 10:40:40;;;;;;;8.65;3.47;;;;;;;36.14;32.50;101321.75;5063268;28;20037;-52
2022/05/16 10:43:32;;;;;;;6.25;2.90;;;;;;;34.75;34.20;101325.50;5071635;28;20029;-52
2022/05/16 10:46:07;;;;;;;7.90;3.10;;;;;;;33.84;36.17;101318.97;5062358;28;20158;-53
2022/05/16 10:48:58;;;;;;;10.00;2.78;;;;;;;33.95;36.46;101322.09;5074391;28;20114;-50
2022/05/16 10:51:31;;;;;;;11.07;3.83;;;;;;;33.54;37.83;101329.41;5064142;28;20045;-55
2022/05/16 10:54:08;;;;;;;17.77;3.33;;;;;;;32.75;39.10;101344.66;5067444;28;20033;-50
2022/05/16 10:56:58;;;;;;;10.40;4.90;;;;;;;32.44;40.65;101351.38;5052748;28;20045;-53
2022/05/16 10:59:45;;;;;;;13.45;5.40;;;;;;;32.25;40.97;101360.03;5070982;28;20036;-52
2022/05/16 11:02:21;;;;;;;17.43;7.53;;;;;;;32.00;41.78;101357.03;5063888;28;20033;-51
2022/05/16 11:04:51;;;;;;;22.30;9.65;;;;;;;31.87;41.70;101351.38;5060505;28;20029;-54
2022/05/16 11:07:31;;;;;;;11.10;4.77;;;;;;;31.69;42.56;101369.13;5070628;28;20033;-53
2022/05/16 11:10:05;;;;;;;22.47;9.80;;;;;;;31.35;43.54;101367.97;5069615;28;20028;-54
2022/05/16 11:12:40;;;;;;;23.17;8.93;;;;;;;31.56;43.52;101368.94;5067917;28;20029;-54
2022/05/16 11:15:16;;;;;;;12.52;5.20;;;;;;;30.58;46.06;101366.34;5068029;28;20064;-54
2022/05/16 11:18:05;;;;;;;14.73;6.10;;;;;;;31.22;51.90;101367.00;5071180;28;20028;-54
2022/05/16 11:20:42;;;;;;;11.23;4.80;;;;;;;30.34;59.46;101373.06;5072179;28;20059;-54
2022/05/16 11:23:17;;;;;;;;;;;;;;;28.85;73.02;101397.50;5067451;28;20040;-49
2022/05/16 11:26:03;;;;;;;27.43;10.37;;;;;;;27.75;98.09;101408.75;5072373;28;19917;-53
2022/05/16 11:28:40;;;;;;;23.13;9.83;;;;;;;27.99;100.00;101413.31;5067899;28;20048;-55
2022/05/16 11:31:11;;;;;;;23.23;9.10;;;;;;;28.66;100.00;101414.91;5067769;28;20051;-55
2022/05/16 11:33:46;;;;;;;23.47;9.03;;;;;;;27.99;100.00;101402.31;5063670;28;20033;-50
2022/05/16 11:36:22;;;;;;;13.70;6.93;;;;;;;28.31;100.00;101403.44;5061759;28;20037;-49
2022/05/16 11:39:11;;;;;;;23.50;8.95;;;;;;;27.81;100.00;101424.03;5067342;28;20065;-47
2022/05/16 11:42:00;;;;;;;24.53;10.30;;;;;;;28.39;100.00;101421.19;5041783;28;20040;-52
2022/05/16 11:44:44;;;;;;;24.60;11.50;;;;;;;30.79;94.40;101404.44;5058733;28;20037;-51
2022/05/16 11:47:58;;;;;;;22.53;10.80;;;;;;;32.79;72.24;101420.38;5070320;28;20033;-53
2022/05/16 11:50:38;;;;;;;15.40;7.03;;;;;;;33.97;58.33;101422.47;5062333;28;20124;-50
2022/05/16 11:53:40;;;;;;;16.20;6.57;;;;;;;33.09;62.31;101436.19;5057338;28;20101;-52
2022/05/16 12:02:35;;;;;;;13.73;6.93;;;;;;;33.03;61.35;101433.63;5053648;28;20045;-49
2022/05/16 12:05:00;;;;;;;18.30;8.07;;;;;;;32.74;60.38;101435.22;5057829;28;20033;-50